• Join FlightAware (Why Join?)
  • Login
  • US Flag 
11:07AM EDT


 

Airport Tracker/Info


-or-


 

Live Flight TrackerFlight Track Log ✈ ADR705 ✈ 04-Nov-2013 ✈ LATI / TIA - LJLJ / LJU

Flight Track Log - Related Links

Times and Time Zones

All times are in EST time to prevent confusion due to time zone crossing. See the ADR705 flight status page for this flight to view local times or setup timezone preferences in your user account.

Time Position Orientation Groundspeed Altitude Reporting Facility
EST Latitude Longitude Course Direction KTS MPH feet Rate Location/Type
10:26AM 41.8619 19.2755 324° Northwest  Level Estimated
10:27AM 41.9511 19.1857 323° Northwest  Level Estimated
10:28AM 42.0402 19.0957 323° Northwest  Level Estimated
10:29AM 42.1293 19.0054 323° Northwest  Level Estimated
10:30AM 42.2183 18.9149 323° Northwest  Level Estimated
10:31AM 42.3072 18.8241 323° Northwest  Level Estimated
10:32AM 42.3961 18.7331 323° Northwest  Level Estimated
10:33AM 42.4849 18.6418 323° Northwest  Level Estimated
10:34AM 42.5736 18.5503 323° Northwest  Level Estimated
10:35AM 42.6623 18.4585 323° Northwest  Level Estimated
10:36AM 42.7508 18.3664 323° Northwest  Level Estimated
10:37AM 42.8393 18.2740 323° Northwest  Level Estimated
10:38AM 42.9277 18.1814 323° Northwest  Level Estimated
10:39AM 43.0161 18.0886 322° Northwest  Level Estimated
10:40AM 43.1044 17.9954 322° Northwest  Level Estimated
10:41AM 43.1926 17.9021 322° Northwest  Level Estimated
10:42AM 43.2807 17.8084 322° Northwest  Level Estimated
10:43AM 43.3687 17.7144 322° Northwest  Level Estimated
10:44AM 43.4567 17.6202 322° Northwest  Level Estimated
10:45AM 43.5446 17.5257 322° Northwest  Level Estimated
10:46AM 43.6324 17.4310 322° Northwest  Level Estimated
10:47AM 43.7201 17.3359 322° Northwest  Level Estimated
10:48AM 43.8078 17.2406 322° Northwest  Level Estimated
10:49AM 43.8953 17.1450 322° Northwest  Level Estimated
10:50AM 43.9828 17.0491 322° Northwest  Level Estimated
10:51AM 44.0702 16.9529 322° Northwest  Level Estimated
10:52AM 44.1576 16.8565 322° Northwest  Level Estimated
10:53AM 44.2448 16.7597 322° Northwest  Level Estimated
10:54AM 44.3320 16.6627 321° Northwest  Level Estimated
10:55AM 44.4191 16.5654 321° Northwest  Level Estimated
10:56AM 44.5061 16.4678 321° Northwest  Level Estimated
10:57AM 44.5930 16.3699 321° Northwest  Level Estimated
10:58AM 44.6798 16.2717 321° Northwest  Level Estimated
10:59AM 44.7666 16.1732 321° Northwest  Level Estimated
11:00AM 44.8533 16.0744 321° Northwest  Level Estimated
11:01AM 44.9398 15.9753 321° Northwest  Level Estimated
11:02AM 45.0263 15.8759 321° Northwest  Level Estimated
11:03AM 45.1128 15.7763 321° Northwest  Level Estimated
11:04AM 45.1991 15.6763 321° Northwest  Level Estimated
11:05AM 45.2853 15.5760 321° Northwest  Level Estimated
11:06AM 45.3714 15.4754 321° Northwest  Level Estimated
11:07AM 45.4575 15.3745 321° Northwest  Level Estimated
11:08AM 45.5435 15.2733 321° Northwest  Level Estimated
11:09AM 45.6294 15.1718 320° Northwest  Level Estimated
11:10AM 45.7151 15.0700 320° Northwest  Level Estimated
11:11AM 45.8008 14.9678 320° Northwest  Level Estimated
11:12AM 45.8865 14.8654 320° Northwest  Level Estimated
11:13AM 45.9720 14.7626 320° Northwest  Level Estimated
11:14AM 46.0574 14.6595 320° Northwest  Level Estimated
11:15AM 46.1427 14.5561 320° Northwest  Level Estimated
11:16AM 46.2237 14.4576 320° Northwest  Level Estimated
11:17AM 46.2237 14.4576 170° South  Level Estimated
11:18AM 46.2237 14.4576 170° South  Level Estimated
11:19AM 46.2237 14.4576 170° South  Level Estimated
11:20AM 46.2237 14.4576 170° South  Level Estimated
11:21AM 46.2237 14.4576 170° South  Level Estimated
11:22AM 46.2237 14.4576 170° South  Level Estimated
11:23AM 46.2237 14.4576 170° South  Level Estimated
11:24AM 46.2237 14.4576 170° South  Level Estimated
11:25AM 46.2237 14.4576 170° South  Level Estimated
11:26AM 46.2237 14.4576 170° South  Level Estimated
11:27AM 46.2237 14.4576 170° South  Level Estimated
11:28AM 46.2237 14.4576 170° South  Level Estimated
11:29AM 46.2237 14.4576 170° South  Level Estimated
11:30AM 46.2237 14.4576 170° South  Level Estimated
11:31AM 46.2237 14.4576 170° South  Level Estimated
11:32AM 46.2237 14.4576 170° South  Level Estimated